sensor_id;sensor_type;location;lat;lon;timestamp;temperature;humidity
67752;DHT22;54551;51.068;5.826;2022-07-29T00:00:08;20.90;93.20
67752;DHT22;54551;51.068;5.826;2022-07-29T00:02:34;20.90;92.90
67752;DHT22;54551;51.068;5.826;2022-07-29T00:05:01;20.90;93.20
67752;DHT22;54551;51.068;5.826;2022-07-29T00:07:27;20.90;93.30
67752;DHT22;54551;51.068;5.826;2022-07-29T00:09:53;20.90;93.10
67752;DHT22;54551;51.068;5.826;2022-07-29T00:12:21;21.00;93.10
67752;DHT22;54551;51.068;5.826;2022-07-29T00:14:47;21.00;93.10
67752;DHT22;54551;51.068;5.826;2022-07-29T00:17:13;21.00;93.20
67752;DHT22;54551;51.068;5.826;2022-07-29T00:19:39;21.00;93.30
67752;DHT22;54551;51.068;5.826;2022-07-29T00:22:05;21.00;93.70
67752;DHT22;54551;51.068;5.826;2022-07-29T00:24:31;21.10;94.00
67752;DHT22;54551;51.068;5.826;2022-07-29T00:26:57;21.10;94.60
67752;DHT22;54551;51.068;5.826;2022-07-29T00:29:23;21.10;95.00
67752;DHT22;54551;51.068;5.826;2022-07-29T00:31:49;21.00;95.50
67752;DHT22;54551;51.068;5.826;2022-07-29T00:34:15;20.90;96.60
67752;DHT22;54551;51.068;5.826;2022-07-29T00:37:04;20.80;97.80
67752;DHT22;54551;51.068;5.826;2022-07-29T00:39:30;20.70;99.90
67752;DHT22;54551;51.068;5.826;2022-07-29T00:41:56;20.50;99.90
67752;DHT22;54551;51.068;5.826;2022-07-29T00:44:21;20.10;99.90
67752;DHT22;54551;51.068;5.826;2022-07-29T00:46:47;19.70;99.90
67752;DHT22;54551;51.068;5.826;2022-07-29T00:49:13;19.30;99.90
67752;DHT22;54551;51.068;5.826;2022-07-29T00:51:39;18.90;99.90
67752;DHT22;54551;51.068;5.826;2022-07-29T00:54:05;18.40;99.90
67752;DHT22;54551;51.068;5.826;2022-07-29T00:56:32;18.00;99.90
67752;DHT22;54551;51.068;5.826;2022-07-29T00:58:59;17.80;99.90
67752;DHT22;54551;51.068;5.826;2022-07-29T01:01:26;17.60;99.90
67752;DHT22;54551;51.068;5.826;2022-07-29T01:03:52;17.30;99.90
67752;DHT22;54551;51.068;5.826;2022-07-29T01:06:19;17.20;99.90
67752;DHT22;54551;51.068;5.826;2022-07-29T01:08:47;17.10;99.90
67752;DHT22;54551;51.068;5.826;2022-07-29T01:11:15;17.10;99.90
67752;DHT22;54551;51.068;5.826;2022-07-29T01:13:43;17.00;99.90
67752;DHT22;54551;51.068;5.826;2022-07-29T01:16:39;17.00;99.90
67752;DHT22;54551;51.068;5.826;2022-07-29T01:30:01;17.00;99.90
67752;DHT22;54551;51.068;5.826;2022-07-29T01:32:33;17.00;99.90
67752;DHT22;54551;51.068;5.826;2022-07-29T01:35:20;17.10;99.90
67752;DHT22;54551;51.068;5.826;2022-07-29T01:38:00;17.10;99.90
67752;DHT22;54551;51.068;5.826;2022-07-29T01:43:10;17.00;99.90
67752;DHT22;54551;51.068;5.826;2022-07-29T01:48:24;17.00;99.90
67752;DHT22;54551;51.068;5.826;2022-07-29T01:51:01;16.90;99.90
67752;DHT22;54551;51.068;5.826;2022-07-29T01:56:45;16.80;99.90
67752;DHT22;54551;51.068;5.826;2022-07-29T01:59:12;16.80;99.90
67752;DHT22;54551;51.068;5.826;2022-07-29T02:01:40;16.90;99.90
67752;DHT22;54551;51.068;5.826;2022-07-29T02:04:10;16.80;99.90
67752;DHT22;54551;51.068;5.826;2022-07-29T02:06:37;16.80;99.90
67752;DHT22;54551;51.068;5.826;2022-07-29T02:09:04;16.80;99.90
67752;DHT22;54551;51.068;5.826;2022-07-29T02:11:33;16.70;99.90
67752;DHT22;54551;51.068;5.826;2022-07-29T02:14:00;16.70;99.90
67752;DHT22;54551;51.068;5.826;2022-07-29T02:16:29;16.70;99.90
67752;DHT22;54551;51.068;5.826;2022-07-29T02:18:57;16.80;99.90
67752;DHT22;54551;51.068;5.826;2022-07-29T02:21:26;16.80;99.90
67752;DHT22;54551;51.068;5.826;2022-07-29T02:23:53;16.80;99.90
67752;DHT22;54551;51.068;5.826;2022-07-29T02:26:23;16.80;99.90
67752;DHT22;54551;51.068;5.826;2022-07-29T02:28:52;16.80;99.90
67752;DHT22;54551;51.068;5.826;2022-07-29T02:31:21;16.90;99.90
67752;DHT22;54551;51.068;5.826;2022-07-29T02:33:48;17.00;99.90
67752;DHT22;54551;51.068;5.826;2022-07-29T02:36:15;17.00;99.90
67752;DHT22;54551;51.068;5.826;2022-07-29T02:38:44;17.00;99.90
67752;DHT22;54551;51.068;5.826;2022-07-29T02:41:26;17.00;99.90
67752;DHT22;54551;51.068;5.826;2022-07-29T02:43:58;17.10;99.90
67752;DHT22;54551;51.068;5.826;2022-07-29T02:46:36;17.20;99.90
67752;DHT22;54551;51.068;5.826;2022-07-29T02:49:10;17.30;99.90
67752;DHT22;54551;51.068;5.826;2022-07-29T02:51:53;17.30;99.90
67752;DHT22;54551;51.068;5.826;2022-07-29T02:54:33;17.40;99.90
67752;DHT22;54551;51.068;5.826;2022-07-29T02:57:11;17.40;99.90
67752;DHT22;54551;51.068;5.826;2022-07-29T02:59:38;17.40;99.90
67752;DHT22;54551;51.068;5.826;2022-07-29T03:02:08;17.40;99.90
67752;DHT22;54551;51.068;5.826;2022-07-29T03:04:35;17.40;99.90
67752;DHT22;54551;51.068;5.826;2022-07-29T03:07:04;17.40;99.90
67752;DHT22;54551;51.068;5.826;2022-07-29T03:09:31;17.40;99.90
67752;DHT22;54551;51.068;5.826;2022-07-29T03:11:57;17.40;99.90
67752;DHT22;54551;51.068;5.826;2022-07-29T03:14:24;17.40;99.90
67752;DHT22;54551;51.068;5.826;2022-07-29T03:16:50;17.20;99.90
67752;DHT22;54551;51.068;5.826;2022-07-29T03:19:17;17.20;99.90
67752;DHT22;54551;51.068;5.826;2022-07-29T03:21:43;17.30;99.90
67752;DHT22;54551;51.068;5.826;2022-07-29T03:24:09;17.30;99.90
67752;DHT22;54551;51.068;5.826;2022-07-29T03:26:35;17.40;99.90
67752;DHT22;54551;51.068;5.826;2022-07-29T03:29:01;17.40;99.90
67752;DHT22;54551;51.068;5.826;2022-07-29T03:31:27;17.40;99.90
67752;DHT22;54551;51.068;5.826;2022-07-29T03:33:52;17.40;99.90
67752;DHT22;54551;51.068;5.826;2022-07-29T03:36:18;17.30;99.90
67752;DHT22;54551;51.068;5.826;2022-07-29T03:38:45;17.40;99.90
67752;DHT22;54551;51.068;5.826;2022-07-29T03:41:13;17.40;99.90
67752;DHT22;54551;51.068;5.826;2022-07-29T03:43:41;17.40;99.90
67752;DHT22;54551;51.068;5.826;2022-07-29T03:46:09;17.40;99.90
67752;DHT22;54551;51.068;5.826;2022-07-29T03:48:37;17.40;99.90
67752;DHT22;54551;51.068;5.826;2022-07-29T03:51:05;17.40;99.90
67752;DHT22;54551;51.068;5.826;2022-07-29T03:53:32;17.50;99.90
67752;DHT22;54551;51.068;5.826;2022-07-29T03:56:02;17.50;99.90
67752;DHT22;54551;51.068;5.826;2022-07-29T03:58:30;17.50;99.90
67752;DHT22;54551;51.068;5.826;2022-07-29T04:00:57;17.50;99.90
67752;DHT22;54551;51.068;5.826;2022-07-29T04:03:23;17.60;99.90
67752;DHT22;54551;51.068;5.826;2022-07-29T04:06:04;17.60;99.90
67752;DHT22;54551;51.068;5.826;2022-07-29T04:08:34;17.70;99.90
67752;DHT22;54551;51.068;5.826;2022-07-29T04:11:01;17.60;99.90
67752;DHT22;54551;51.068;5.826;2022-07-29T04:13:27;17.70;99.90
67752;DHT22;54551;51.068;5.826;2022-07-29T04:15:53;17.70;99.90
67752;DHT22;54551;51.068;5.826;2022-07-29T04:18:19;17.80;99.90
67752;DHT22;54551;51.068;5.826;2022-07-29T04:20:44;17.80;99.90
67752;DHT22;54551;51.068;5.826;2022-07-29T04:23:10;17.80;99.90
67752;DHT22;54551;51.068;5.826;2022-07-29T04:25:37;17.80;99.90
67752;DHT22;54551;51.068;5.826;2022-07-29T04:28:04;17.80;99.90
67752;DHT22;54551;51.068;5.826;2022-07-29T04:30:31;17.70;99.90
67752;DHT22;54551;51.068;5.826;2022-07-29T04:32:58;17.60;99.90
67752;DHT22;54551;51.068;5.826;2022-07-29T04:35:24;17.50;99.90
67752;DHT22;54551;51.068;5.826;2022-07-29T04:37:49;17.50;99.90
67752;DHT22;54551;51.068;5.826;2022-07-29T04:40:15;17.50;99.90
67752;DHT22;54551;51.068;5.826;2022-07-29T04:42:41;17.50;99.90
67752;DHT22;54551;51.068;5.826;2022-07-29T04:45:07;17.50;99.90
67752;DHT22;54551;51.068;5.826;2022-07-29T04:47:33;17.40;99.90
67752;DHT22;54551;51.068;5.826;2022-07-29T04:49:59;17.30;99.90
67752;DHT22;54551;51.068;5.826;2022-07-29T04:52:25;17.20;99.90
67752;DHT22;54551;51.068;5.826;2022-07-29T04:54:51;17.20;99.90
67752;DHT22;54551;51.068;5.826;2022-07-29T04:57:17;17.20;99.90
67752;DHT22;54551;51.068;5.826;2022-07-29T04:59:42;17.20;99.90
67752;DHT22;54551;51.068;5.826;2022-07-29T05:02:09;17.20;99.90
67752;DHT22;54551;51.068;5.826;2022-07-29T05:04:35;17.30;99.90
67752;DHT22;54551;51.068;5.826;2022-07-29T05:07:01;17.30;99.90
67752;DHT22;54551;51.068;5.826;2022-07-29T05:09:27;17.30;99.90
67752;DHT22;54551;51.068;5.826;2022-07-29T05:11:53;17.40;99.90
67752;DHT22;54551;51.068;5.826;2022-07-29T05:14:19;17.50;99.90
67752;DHT22;54551;51.068;5.826;2022-07-29T05:16:44;17.50;99.90
67752;DHT22;54551;51.068;5.826;2022-07-29T05:19:10;17.60;99.90
67752;DHT22;54551;51.068;5.826;2022-07-29T05:21:36;17.60;99.90
67752;DHT22;54551;51.068;5.826;2022-07-29T05:24:02;17.70;99.90
67752;DHT22;54551;51.068;5.826;2022-07-29T05:26:28;17.70;99.90
67752;DHT22;54551;51.068;5.826;2022-07-29T05:28:54;17.70;99.90
67752;DHT22;54551;51.068;5.826;2022-07-29T05:31:20;17.70;99.90
67752;DHT22;54551;51.068;5.826;2022-07-29T05:33:46;17.70;99.90
67752;DHT22;54551;51.068;5.826;2022-07-29T05:36:12;17.70;99.90
67752;DHT22;54551;51.068;5.826;2022-07-29T05:38:37;17.80;99.90
67752;DHT22;54551;51.068;5.826;2022-07-29T05:41:04;17.80;99.90
67752;DHT22;54551;51.068;5.826;2022-07-29T05:43:30;17.90;99.90
67752;DHT22;54551;51.068;5.826;2022-07-29T05:45:57;18.00;99.90
67752;DHT22;54551;51.068;5.826;2022-07-29T05:48:23;17.90;99.90
67752;DHT22;54551;51.068;5.826;2022-07-29T05:50:49;18.00;99.90
67752;DHT22;54551;51.068;5.826;2022-07-29T05:53:15;18.00;99.90
67752;DHT22;54551;51.068;5.826;2022-07-29T05:55:42;18.10;99.90
67752;DHT22;54551;51.068;5.826;2022-07-29T05:58:07;18.10;99.90
67752;DHT22;54551;51.068;5.826;2022-07-29T06:00:33;18.30;99.90
67752;DHT22;54551;51.068;5.826;2022-07-29T06:03:00;18.40;99.90
67752;DHT22;54551;51.068;5.826;2022-07-29T06:05:25;18.50;99.90
67752;DHT22;54551;51.068;5.826;2022-07-29T06:07:51;18.60;99.90
67752;DHT22;54551;51.068;5.826;2022-07-29T06:10:17;18.70;99.90
67752;DHT22;54551;51.068;5.826;2022-07-29T06:12:44;18.80;99.90
67752;DHT22;54551;51.068;5.826;2022-07-29T06:15:10;18.90;99.90
67752;DHT22;54551;51.068;5.826;2022-07-29T06:17:36;18.80;99.90
67752;DHT22;54551;51.068;5.826;2022-07-29T06:20:03;18.70;99.90
67752;DHT22;54551;51.068;5.826;2022-07-29T06:22:29;18.60;99.90
67752;DHT22;54551;51.068;5.826;2022-07-29T06:24:55;18.50;99.90
67752;DHT22;54551;51.068;5.826;2022-07-29T06:27:21;18.40;99.90
67752;DHT22;54551;51.068;5.826;2022-07-29T06:29:47;18.30;99.90
67752;DHT22;54551;51.068;5.826;2022-07-29T06:32:13;18.30;99.90
67752;DHT22;54551;51.068;5.826;2022-07-29T06:34:39;18.30;99.90
67752;DHT22;54551;51.068;5.826;2022-07-29T06:37:08;18.30;99.90
67752;DHT22;54551;51.068;5.826;2022-07-29T06:39:35;18.40;99.90
67752;DHT22;54551;51.068;5.826;2022-07-29T06:42:05;18.50;99.90
67752;DHT22;54551;51.068;5.826;2022-07-29T06:44:32;18.60;99.90
67752;DHT22;54551;51.068;5.826;2022-07-29T06:47:01;18.70;99.90
67752;DHT22;54551;51.068;5.826;2022-07-29T06:49:28;18.80;99.90
67752;DHT22;54551;51.068;5.826;2022-07-29T06:51:54;18.90;99.90
67752;DHT22;54551;51.068;5.826;2022-07-29T06:54:20;18.90;99.90
67752;DHT22;54551;51.068;5.826;2022-07-29T06:56:47;18.90;99.90
67752;DHT22;54551;51.068;5.826;2022-07-29T06:59:13;19.00;99.90
67752;DHT22;54551;51.068;5.826;2022-07-29T07:01:41;19.10;99.90
67752;DHT22;54551;51.068;5.826;2022-07-29T07:04:08;19.20;99.90
67752;DHT22;54551;51.068;5.826;2022-07-29T07:06:35;19.30;99.90
67752;DHT22;54551;51.068;5.826;2022-07-29T07:09:01;19.30;99.90
67752;DHT22;54551;51.068;5.826;2022-07-29T07:11:27;19.30;99.90
67752;DHT22;54551;51.068;5.826;2022-07-29T07:13:53;19.30;99.90
67752;DHT22;54551;51.068;5.826;2022-07-29T07:16:19;19.30;99.90
67752;DHT22;54551;51.068;5.826;2022-07-29T07:18:45;19.20;99.90
67752;DHT22;54551;51.068;5.826;2022-07-29T07:21:11;19.20;99.90
67752;DHT22;54551;51.068;5.826;2022-07-29T07:23:37;19.20;99.90
67752;DHT22;54551;51.068;5.826;2022-07-29T07:26:03;19.30;99.90
67752;DHT22;54551;51.068;5.826;2022-07-29T07:28:31;19.40;99.90
67752;DHT22;54551;51.068;5.826;2022-07-29T07:30:57;19.60;99.90
67752;DHT22;54551;51.068;5.826;2022-07-29T07:33:23;19.80;99.90
67752;DHT22;54551;51.068;5.826;2022-07-29T07:35:50;19.90;99.90
67752;DHT22;54551;51.068;5.826;2022-07-29T07:38:16;19.80;99.90
67752;DHT22;54551;51.068;5.826;2022-07-29T07:40:42;19.60;99.90
67752;DHT22;54551;51.068;5.826;2022-07-29T07:43:08;19.60;99.90
67752;DHT22;54551;51.068;5.826;2022-07-29T07:45:33;19.70;99.90
67752;DHT22;54551;51.068;5.826;2022-07-29T07:48:00;19.80;99.90
67752;DHT22;54551;51.068;5.826;2022-07-29T07:50:25;20.00;99.90
67752;DHT22;54551;51.068;5.826;2022-07-29T07:52:53;20.20;99.90
67752;DHT22;54551;51.068;5.826;2022-07-29T07:55:20;20.20;99.90
67752;DHT22;54551;51.068;5.826;2022-07-29T07:57:47;20.10;99.90
67752;DHT22;54551;51.068;5.826;2022-07-29T08:00:14;20.10;99.90
67752;DHT22;54551;51.068;5.826;2022-07-29T08:02:41;20.10;99.90
67752;DHT22;54551;51.068;5.826;2022-07-29T08:05:08;20.20;99.90
67752;DHT22;54551;51.068;5.826;2022-07-29T08:07:34;20.30;99.90
67752;DHT22;54551;51.068;5.826;2022-07-29T08:10:01;20.40;99.90
67752;DHT22;54551;51.068;5.826;2022-07-29T08:12:27;20.60;99.90
67752;DHT22;54551;51.068;5.826;2022-07-29T08:14:53;20.80;99.90
67752;DHT22;54551;51.068;5.826;2022-07-29T08:17:19;20.90;99.90
67752;DHT22;54551;51.068;5.826;2022-07-29T08:19:45;21.10;99.90
67752;DHT22;54551;51.068;5.826;2022-07-29T08:22:13;21.40;99.90
67752;DHT22;54551;51.068;5.826;2022-07-29T08:24:39;21.50;99.90
67752;DHT22;54551;51.068;5.826;2022-07-29T08:27:12;21.60;99.90
67752;DHT22;54551;51.068;5.826;2022-07-29T08:29:38;21.80;99.90
67752;DHT22;54551;51.068;5.826;2022-07-29T08:32:05;21.90;99.90
67752;DHT22;54551;51.068;5.826;2022-07-29T08:34:31;21.90;99.90
67752;DHT22;54551;51.068;5.826;2022-07-29T08:36:59;22.00;99.90
67752;DHT22;54551;51.068;5.826;2022-07-29T08:39:25;22.20;99.90
67752;DHT22;54551;51.068;5.826;2022-07-29T08:41:52;22.40;99.90
67752;DHT22;54551;51.068;5.826;2022-07-29T08:44:18;22.40;99.90
67752;DHT22;54551;51.068;5.826;2022-07-29T08:46:45;22.50;99.90
67752;DHT22;54551;51.068;5.826;2022-07-29T08:49:11;22.70;99.90
67752;DHT22;54551;51.068;5.826;2022-07-29T08:51:39;22.80;99.90
67752;DHT22;54551;51.068;5.826;2022-07-29T08:54:06;23.00;99.90
67752;DHT22;54551;51.068;5.826;2022-07-29T08:56:34;23.20;99.90
67752;DHT22;54551;51.068;5.826;2022-07-29T08:59:05;23.30;99.90
67752;DHT22;54551;51.068;5.826;2022-07-29T09:01:33;23.30;99.90
67752;DHT22;54551;51.068;5.826;2022-07-29T09:03:59;23.20;99.90
67752;DHT22;54551;51.068;5.826;2022-07-29T09:06:31;23.20;99.90
67752;DHT22;54551;51.068;5.826;2022-07-29T09:08:59;23.40;99.90
67752;DHT22;54551;51.068;5.826;2022-07-29T09:11:26;23.50;99.90
67752;DHT22;54551;51.068;5.826;2022-07-29T09:13:52;23.50;99.90
67752;DHT22;54551;51.068;5.826;2022-07-29T09:16:18;23.40;99.90
67752;DHT22;54551;51.068;5.826;2022-07-29T09:18:45;23.30;99.90
67752;DHT22;54551;51.068;5.826;2022-07-29T09:21:14;23.20;99.90
67752;DHT22;54551;51.068;5.826;2022-07-29T09:24:10;23.00;99.90
67752;DHT22;54551;51.068;5.826;2022-07-29T09:26:41;23.00;99.90
67752;DHT22;54551;51.068;5.826;2022-07-29T09:29:09;23.10;99.90
67752;DHT22;54551;51.068;5.826;2022-07-29T09:31:38;23.20;99.90
67752;DHT22;54551;51.068;5.826;2022-07-29T09:34:05;23.50;99.90
67752;DHT22;54551;51.068;5.826;2022-07-29T09:36:42;23.80;99.90
67752;DHT22;54551;51.068;5.826;2022-07-29T09:39:08;23.90;99.90
67752;DHT22;54551;51.068;5.826;2022-07-29T09:41:51;23.90;99.90
67752;DHT22;54551;51.068;5.826;2022-07-29T09:44:21;24.00;99.90
67752;DHT22;54551;51.068;5.826;2022-07-29T09:46:57;24.20;99.90
67752;DHT22;54551;51.068;5.826;2022-07-29T09:49:25;24.90;99.90
67752;DHT22;54551;51.068;5.826;2022-07-29T09:52:04;25.70;99.90
67752;DHT22;54551;51.068;5.826;2022-07-29T09:54:31;26.80;99.90
67752;DHT22;54551;51.068;5.826;2022-07-29T09:57:08;27.70;99.90
67752;DHT22;54551;51.068;5.826;2022-07-29T09:59:38;28.30;99.90
67752;DHT22;54551;51.068;5.826;2022-07-29T10:02:12;28.80;99.90
67752;DHT22;54551;51.068;5.826;2022-07-29T10:04:42;29.60;98.80
67752;DHT22;54551;51.068;5.826;2022-07-29T10:07:09;30.40;95.60
67752;DHT22;54551;51.068;5.826;2022-07-29T10:09:36;30.50;94.60
67752;DHT22;54551;51.068;5.826;2022-07-29T10:12:13;30.60;94.20
67752;DHT22;54551;51.068;5.826;2022-07-29T10:14:41;30.80;93.30
67752;DHT22;54551;51.068;5.826;2022-07-29T10:17:09;31.00;93.10
67752;DHT22;54551;51.068;5.826;2022-07-29T10:19:36;31.30;92.20
67752;DHT22;54551;51.068;5.826;2022-07-29T10:22:05;31.50;92.30
67752;DHT22;54551;51.068;5.826;2022-07-29T10:24:32;31.60;93.20
67752;DHT22;54551;51.068;5.826;2022-07-29T10:27:01;31.70;91.60
67752;DHT22;54551;51.068;5.826;2022-07-29T10:29:28;31.80;91.20
67752;DHT22;54551;51.068;5.826;2022-07-29T10:43:45;32.50;90.40
67752;DHT22;54551;51.068;5.826;2022-07-29T10:46:12;32.90;86.00
67752;DHT22;54551;51.068;5.826;2022-07-29T10:49:08;32.90;84.90
67752;DHT22;54551;51.068;5.826;2022-07-29T10:51:53;32.70;85.60
67752;DHT22;54551;51.068;5.826;2022-07-29T10:54:43;32.50;86.60
67752;DHT22;54551;51.068;5.826;2022-07-29T10:57:21;32.10;84.90
67752;DHT22;54551;51.068;5.826;2022-07-29T10:59:50;31.60;86.80
67752;DHT22;54551;51.068;5.826;2022-07-29T11:05:05;32.10;84.60
67752;DHT22;54551;51.068;5.826;2022-07-29T11:07:32;32.50;84.60
67752;DHT22;54551;51.068;5.826;2022-07-29T11:15:14;32.40;84.30
67752;DHT22;54551;51.068;5.826;2022-07-29T11:20:35;32.50;83.20
67752;DHT22;54551;51.068;5.826;2022-07-29T11:23:47;32.80;82.70
67752;DHT22;54551;51.068;5.826;2022-07-29T11:31:38;32.80;81.90
67752;DHT22;54551;51.068;5.826;2022-07-29T11:45:10;32.20;80.50
67752;DHT22;54551;51.068;5.826;2022-07-29T11:47:56;32.40;80.80
67752;DHT22;54551;51.068;5.826;2022-07-29T11:50:34;32.80;78.90
67752;DHT22;54551;51.068;5.826;2022-07-29T11:53:02;32.70;77.10
67752;DHT22;54551;51.068;5.826;2022-07-29T11:55:28;32.50;76.90
67752;DHT22;54551;51.068;5.826;2022-07-29T11:57:58;32.40;77.80
67752;DHT22;54551;51.068;5.826;2022-07-29T12:02:56;32.50;77.80
67752;DHT22;54551;51.068;5.826;2022-07-29T12:05:49;32.80;78.20
67752;DHT22;54551;51.068;5.826;2022-07-29T12:08:21;32.90;76.40
67752;DHT22;54551;51.068;5.826;2022-07-29T12:10:49;32.90;78.30
67752;DHT22;54551;51.068;5.826;2022-07-29T12:13:17;32.70;77.20
67752;DHT22;54551;51.068;5.826;2022-07-29T12:15:55;32.30;78.80
67752;DHT22;54551;51.068;5.826;2022-07-29T12:18:22;32.20;79.80
67752;DHT22;54551;51.068;5.826;2022-07-29T12:20:49;32.00;76.20
67752;DHT22;54551;51.068;5.826;2022-07-29T12:23:21;31.80;76.00
67752;DHT22;54551;51.068;5.826;2022-07-29T12:25:47;31.70;77.00
67752;DHT22;54551;51.068;5.826;2022-07-29T12:28:14;32.00;75.20
67752;DHT22;54551;51.068;5.826;2022-07-29T12:30:48;32.30;77.00
67752;DHT22;54551;51.068;5.826;2022-07-29T12:33:25;32.10;76.30
67752;DHT22;54551;51.068;5.826;2022-07-29T12:36:02;32.00;75.10
67752;DHT22;54551;51.068;5.826;2022-07-29T12:38:29;32.00;77.20
67752;DHT22;54551;51.068;5.826;2022-07-29T12:40:55;31.60;75.70
67752;DHT22;54551;51.068;5.826;2022-07-29T12:43:22;31.50;77.30
67752;DHT22;54551;51.068;5.826;2022-07-29T12:45:51;32.20;76.90
67752;DHT22;54551;51.068;5.826;2022-07-29T12:48:17;32.80;73.60
67752;DHT22;54551;51.068;5.826;2022-07-29T12:51:00;32.80;72.80
67752;DHT22;54551;51.068;5.826;2022-07-29T12:53:27;33.10;73.00
67752;DHT22;54551;51.068;5.826;2022-07-29T12:55:55;33.40;72.80
67752;DHT22;54551;51.068;5.826;2022-07-29T12:58:32;33.50;71.50
67752;DHT22;54551;51.068;5.826;2022-07-29T13:03:55;33.80;72.30
67752;DHT22;54551;51.068;5.826;2022-07-29T13:06:42;34.10;72.60
67752;DHT22;54551;51.068;5.826;2022-07-29T13:09:11;34.50;71.20
67752;DHT22;54551;51.068;5.826;2022-07-29T13:11:39;34.40;70.20
67752;DHT22;54551;51.068;5.826;2022-07-29T13:14:10;34.20;71.20
67752;DHT22;54551;51.068;5.826;2022-07-29T13:16:38;33.80;69.30
67752;DHT22;54551;51.068;5.826;2022-07-29T13:19:36;33.20;71.30
67752;DHT22;54551;51.068;5.826;2022-07-29T13:22:02;33.10;71.20
67752;DHT22;54551;51.068;5.826;2022-07-29T13:24:28;32.60;72.50
67752;DHT22;54551;51.068;5.826;2022-07-29T13:26:54;32.70;72.90
67752;DHT22;54551;51.068;5.826;2022-07-29T13:29:20;32.50;73.40
67752;DHT22;54551;51.068;5.826;2022-07-29T13:31:46;32.60;73.50
67752;DHT22;54551;51.068;5.826;2022-07-29T13:34:12;32.60;74.00
67752;DHT22;54551;51.068;5.826;2022-07-29T13:36:38;32.50;73.20
67752;DHT22;54551;51.068;5.826;2022-07-29T13:39:03;32.30;74.80
67752;DHT22;54551;51.068;5.826;2022-07-29T13:41:30;32.10;76.10
67752;DHT22;54551;51.068;5.826;2022-07-29T13:43:56;32.00;75.10
67752;DHT22;54551;51.068;5.826;2022-07-29T13:46:22;31.90;74.00
67752;DHT22;54551;51.068;5.826;2022-07-29T13:48:48;31.90;73.20
67752;DHT22;54551;51.068;5.826;2022-07-29T13:51:14;31.80;74.20
67752;DHT22;54551;51.068;5.826;2022-07-29T13:53:39;31.90;75.60
67752;DHT22;54551;51.068;5.826;2022-07-29T13:56:05;32.30;74.80
67752;DHT22;54551;51.068;5.826;2022-07-29T13:58:32;32.60;73.50
67752;DHT22;54551;51.068;5.826;2022-07-29T14:00:58;33.00;72.90
67752;DHT22;54551;51.068;5.826;2022-07-29T14:03:25;32.90;72.60
67752;DHT22;54551;51.068;5.826;2022-07-29T14:05:51;32.20;74.00
67752;DHT22;54551;51.068;5.826;2022-07-29T14:08:17;31.30;74.60
67752;DHT22;54551;51.068;5.826;2022-07-29T14:10:43;30.70;76.30
67752;DHT22;54551;51.068;5.826;2022-07-29T14:13:09;30.60;77.50
67752;DHT22;54551;51.068;5.826;2022-07-29T14:15:35;30.70;76.70
67752;DHT22;54551;51.068;5.826;2022-07-29T14:18:01;30.90;78.40
67752;DHT22;54551;51.068;5.826;2022-07-29T14:20:27;30.90;76.10
67752;DHT22;54551;51.068;5.826;2022-07-29T14:22:55;30.50;77.80
67752;DHT22;54551;51.068;5.826;2022-07-29T14:25:22;29.90;79.20
67752;DHT22;54551;51.068;5.826;2022-07-29T14:27:48;29.40;81.00
67752;DHT22;54551;51.068;5.826;2022-07-29T14:30:14;29.00;81.80
67752;DHT22;54551;51.068;5.826;2022-07-29T14:32:40;28.70;84.20
67752;DHT22;54551;51.068;5.826;2022-07-29T14:35:09;28.60;83.90
67752;DHT22;54551;51.068;5.826;2022-07-29T14:37:35;28.70;83.40
67752;DHT22;54551;51.068;5.826;2022-07-29T14:40:02;28.70;83.40
67752;DHT22;54551;51.068;5.826;2022-07-29T14:42:29;28.60;85.40
67752;DHT22;54551;51.068;5.826;2022-07-29T14:44:57;28.60;84.70
67752;DHT22;54551;51.068;5.826;2022-07-29T14:47:23;28.60;83.80
67752;DHT22;54551;51.068;5.826;2022-07-29T14:49:49;28.60;82.90
67752;DHT22;54551;51.068;5.826;2022-07-29T14:52:15;28.50;84.40
67752;DHT22;54551;51.068;5.826;2022-07-29T14:54:41;28.40;84.30
67752;DHT22;54551;51.068;5.826;2022-07-29T14:57:07;28.30;85.10
67752;DHT22;54551;51.068;5.826;2022-07-29T14:59:32;28.50;84.80
67752;DHT22;54551;51.068;5.826;2022-07-29T15:01:58;28.50;84.60
67752;DHT22;54551;51.068;5.826;2022-07-29T15:04:24;28.50;84.60
67752;DHT22;54551;51.068;5.826;2022-07-29T15:06:50;28.60;85.30
67752;DHT22;54551;51.068;5.826;2022-07-29T15:09:17;28.70;83.30
67752;DHT22;54551;51.068;5.826;2022-07-29T15:11:43;28.80;82.60
67752;DHT22;54551;51.068;5.826;2022-07-29T15:14:09;28.80;81.30
67752;DHT22;54551;51.068;5.826;2022-07-29T15:16:36;28.70;81.60
67752;DHT22;54551;51.068;5.826;2022-07-29T15:19:03;28.60;82.40
67752;DHT22;54551;51.068;5.826;2022-07-29T15:21:29;28.10;84.70
67752;DHT22;54551;51.068;5.826;2022-07-29T15:23:55;27.90;85.10
67752;DHT22;54551;51.068;5.826;2022-07-29T15:26:21;27.80;85.30
67752;DHT22;54551;51.068;5.826;2022-07-29T15:28:47;27.80;85.80
67752;DHT22;54551;51.068;5.826;2022-07-29T15:31:13;27.60;86.50
67752;DHT22;54551;51.068;5.826;2022-07-29T15:33:39;27.50;85.90
67752;DHT22;54551;51.068;5.826;2022-07-29T15:36:05;27.50;86.00
67752;DHT22;54551;51.068;5.826;2022-07-29T15:38:31;27.40;86.80
67752;DHT22;54551;51.068;5.826;2022-07-29T15:40:57;27.40;86.80
67752;DHT22;54551;51.068;5.826;2022-07-29T15:43:23;27.30;86.30
67752;DHT22;54551;51.068;5.826;2022-07-29T15:45:50;27.40;85.50
67752;DHT22;54551;51.068;5.826;2022-07-29T15:48:38;27.30;86.20
67752;DHT22;54551;51.068;5.826;2022-07-29T15:51:04;27.20;86.40
67752;DHT22;54551;51.068;5.826;2022-07-29T15:53:30;27.30;87.40
67752;DHT22;54551;51.068;5.826;2022-07-29T15:55:55;27.40;86.80
67752;DHT22;54551;51.068;5.826;2022-07-29T15:58:21;27.40;84.90
67752;DHT22;54551;51.068;5.826;2022-07-29T16:00:49;27.30;83.30
67752;DHT22;54551;51.068;5.826;2022-07-29T16:03:15;27.20;84.20
67752;DHT22;54551;51.068;5.826;2022-07-29T16:05:41;27.10;83.80
67752;DHT22;54551;51.068;5.826;2022-07-29T16:08:07;27.00;83.20
67752;DHT22;54551;51.068;5.826;2022-07-29T16:10:33;26.90;84.60
67752;DHT22;54551;51.068;5.826;2022-07-29T16:12:59;26.70;85.00
67752;DHT22;54551;51.068;5.826;2022-07-29T16:15:25;26.60;85.00
67752;DHT22;54551;51.068;5.826;2022-07-29T16:17:51;26.60;85.20
67752;DHT22;54551;51.068;5.826;2022-07-29T16:20:16;26.60;85.20
67752;DHT22;54551;51.068;5.826;2022-07-29T16:22:42;26.60;86.10
67752;DHT22;54551;51.068;5.826;2022-07-29T16:25:08;26.60;86.40
67752;DHT22;54551;51.068;5.826;2022-07-29T16:27:34;26.60;85.80
67752;DHT22;54551;51.068;5.826;2022-07-29T16:30:00;26.80;86.40
67752;DHT22;54551;51.068;5.826;2022-07-29T16:32:26;26.80;85.60
67752;DHT22;54551;51.068;5.826;2022-07-29T16:34:52;27.00;86.00
67752;DHT22;54551;51.068;5.826;2022-07-29T16:37:17;27.00;85.90
67752;DHT22;54551;51.068;5.826;2022-07-29T16:39:43;27.10;84.90